createdAt,value
2018-12-15T00:01:28.388Z,11.00
2018-12-15T00:03:56.906Z,10.90
2018-12-15T00:06:25.374Z,11.67
2018-12-15T00:08:53.917Z,11.77
2018-12-15T00:11:22.336Z,12.30
2018-12-15T00:13:50.825Z,12.00
2018-12-15T00:16:19.300Z,12.83
2018-12-15T00:18:47.794Z,12.67
2018-12-15T00:21:16.232Z,13.63
2018-12-15T00:23:44.699Z,13.30
2018-12-15T00:26:13.195Z,12.93
2018-12-15T00:28:41.816Z,13.03
2018-12-15T00:31:10.276Z,12.17
2018-12-15T00:33:38.742Z,11.53
2018-12-15T00:36:07.182Z,12.43
2018-12-15T00:38:35.666Z,13.73
2018-12-15T00:41:04.121Z,12.23
2018-12-15T00:43:32.591Z,11.70
2018-12-15T00:46:01.061Z,11.03
2018-12-15T00:48:29.612Z,11.87
2018-12-15T00:50:58.059Z,10.53
2018-12-15T00:53:26.540Z,10.33
2018-12-15T00:55:55.064Z,10.47
2018-12-15T00:58:23.553Z,10.87
2018-12-15T01:00:52.032Z,10.70
2018-12-15T01:03:20.521Z,11.13
2018-12-15T01:05:49.008Z,9.83
2018-12-15T01:08:17.530Z,10.80
2018-12-15T01:10:46.009Z,9.97
2018-12-15T01:13:14.624Z,10.63
2018-12-15T01:15:45.032Z,10.67
2018-12-15T01:18:14.910Z,10.53
2018-12-15T01:20:43.360Z,10.60
2018-12-15T01:23:11.885Z,10.93
2018-12-15T01:25:40.335Z,10.60
2018-12-15T01:28:08.811Z,10.00
2018-12-15T01:30:37.259Z,10.90
2018-12-15T01:33:05.843Z,10.90
2018-12-15T01:35:34.360Z,11.17
2018-12-15T01:38:02.857Z,10.50
2018-12-15T01:40:31.369Z,10.40
2018-12-15T01:42:59.860Z,11.03
2018-12-15T01:45:28.463Z,10.60
2018-12-15T01:47:56.957Z,10.67
2018-12-15T01:50:25.415Z,10.13
2018-12-15T01:52:53.905Z,10.30
2018-12-15T01:55:22.347Z,11.10
2018-12-15T01:57:50.863Z,10.57
2018-12-15T02:00:19.559Z,9.97
2018-12-15T02:02:48.049Z,10.07
2018-12-15T02:05:16.503Z,10.30
2018-12-15T02:07:44.984Z,10.33
2018-12-15T02:10:13.664Z,9.90
2018-12-15T02:12:42.143Z,10.33
2018-12-15T02:15:10.624Z,10.13
2018-12-15T02:17:39.072Z,9.83
2018-12-15T02:20:07.794Z,10.10
2018-12-15T02:22:36.248Z,10.33
2018-12-15T02:25:05.137Z,9.97
2018-12-15T02:27:33.595Z,9.20
2018-12-15T02:30:02.122Z,9.97
2018-12-15T02:32:30.610Z,9.73
2018-12-15T02:34:59.156Z,11.37
2018-12-15T02:37:29.650Z,9.77
2018-12-15T02:39:58.174Z,10.70
2018-12-15T02:42:26.663Z,9.93
2018-12-15T02:44:55.158Z,9.93
2018-12-15T02:47:23.604Z,9.80
2018-12-15T02:49:52.123Z,10.10
2018-12-15T02:52:20.583Z,9.67
2018-12-15T02:54:49.081Z,10.40
2018-12-15T02:57:17.581Z,9.87
2018-12-15T02:59:46.075Z,9.80
2018-12-15T03:02:14.547Z,9.53
2018-12-15T03:04:43.012Z,9.40
2018-12-15T03:07:11.488Z,9.50
2018-12-15T03:09:39.969Z,9.60
2018-12-15T03:12:08.435Z,10.17
2018-12-15T03:14:36.926Z,8.83
2018-12-15T03:17:06.819Z,9.33
2018-12-15T03:19:35.434Z,8.63
2018-12-15T03:22:03.914Z,9.10
2018-12-15T03:24:32.490Z,9.77
2018-12-15T03:27:00.974Z,9.80
2018-12-15T03:29:29.485Z,9.17
2018-12-15T03:31:58.030Z,9.37
2018-12-15T03:34:26.506Z,9.30
2018-12-15T03:36:54.964Z,9.90
2018-12-15T03:39:23.571Z,9.70
2018-12-15T03:41:53.116Z,9.57
2018-12-15T03:44:21.631Z,10.13
2018-12-15T03:46:50.083Z,9.73
2018-12-15T03:49:18.562Z,9.70
2018-12-15T03:51:47.147Z,9.47
2018-12-15T03:54:15.677Z,9.17
2018-12-15T03:56:44.149Z,9.93
2018-12-15T03:59:12.660Z,9.87
2018-12-15T04:01:41.252Z,10.10
2018-12-15T04:04:09.756Z,8.93
2018-12-15T04:06:38.519Z,9.67
2018-12-15T04:09:07.561Z,9.27
2018-12-15T04:11:35.996Z,9.43
2018-12-15T04:14:04.644Z,9.80
2018-12-15T04:16:33.093Z,9.67
2018-12-15T04:19:01.565Z,9.93
2018-12-15T04:21:30.041Z,9.17
2018-12-15T04:23:58.527Z,9.00
2018-12-15T04:26:26.956Z,9.07
2018-12-15T04:28:55.448Z,9.30
2018-12-15T04:31:23.896Z,8.57
2018-12-15T04:33:52.391Z,9.47
2018-12-15T04:36:20.841Z,8.97
2018-12-15T04:38:49.327Z,9.67
2018-12-15T04:41:17.809Z,8.53
2018-12-15T04:43:46.387Z,9.10
2018-12-15T04:46:14.845Z,9.30
2018-12-15T04:48:43.335Z,8.83
2018-12-15T04:51:11.764Z,9.10
2018-12-15T04:53:40.212Z,9.63
2018-12-15T04:56:08.681Z,9.40
2018-12-15T04:58:37.151Z,8.77
2018-12-15T05:01:05.704Z,8.90
2018-12-15T05:03:34.153Z,9.37
2018-12-15T05:06:02.640Z,8.90
2018-12-15T05:08:31.085Z,9.33
2018-12-15T05:10:59.552Z,9.10
2018-12-15T05:13:28.017Z,8.67
2018-12-15T05:15:56.552Z,8.27
2018-12-15T05:18:25.049Z,8.60
2018-12-15T05:20:53.535Z,8.10
2018-12-15T05:23:21.981Z,8.30
2018-12-15T05:25:50.441Z,9.33
2018-12-15T05:28:18.917Z,9.10
2018-12-15T05:30:47.406Z,8.37
2018-12-15T05:33:15.900Z,9.40
2018-12-15T05:35:44.392Z,8.80
2018-12-15T05:38:12.832Z,9.40
2018-12-15T05:40:41.305Z,9.00
2018-12-15T05:43:09.755Z,8.33
2018-12-15T05:45:38.227Z,8.53
2018-12-15T05:48:06.659Z,8.47
2018-12-15T05:50:35.131Z,8.40
2018-12-15T05:53:03.562Z,8.43
2018-12-15T05:55:32.118Z,8.43
2018-12-15T05:58:00.571Z,9.70
2018-12-15T06:00:29.045Z,9.23
2018-12-15T06:02:57.489Z,9.60
2018-12-15T06:05:26.007Z,8.73
2018-12-15T06:07:54.452Z,8.67
2018-12-15T06:10:22.935Z,8.30
2018-12-15T06:12:51.412Z,8.43
2018-12-15T06:15:19.902Z,8.70
2018-12-15T06:17:48.358Z,9.23
2018-12-15T06:20:16.819Z,9.43
2018-12-15T06:22:45.983Z,9.23
2018-12-15T06:25:14.461Z,8.80
2018-12-15T06:27:42.925Z,9.07
2018-12-15T06:30:11.531Z,8.37
2018-12-15T06:32:39.971Z,9.20
2018-12-15T06:35:08.803Z,8.90
2018-12-15T06:37:37.244Z,8.60
2018-12-15T06:40:06.719Z,9.50
2018-12-15T06:42:35.164Z,9.17
2018-12-15T06:45:03.763Z,8.67
2018-12-15T06:47:32.247Z,9.10
2018-12-15T06:50:00.736Z,8.70
2018-12-15T06:52:29.208Z,9.03
2018-12-15T06:54:57.709Z,9.30
2018-12-15T06:57:26.173Z,8.63
2018-12-15T06:59:54.733Z,8.77
2018-12-15T07:02:23.200Z,9.50
2018-12-15T07:04:51.691Z,9.07
2018-12-15T07:07:20.121Z,9.20
2018-12-15T07:09:48.585Z,8.93
2018-12-15T07:12:17.097Z,8.87
2018-12-15T07:14:45.563Z,9.20
2018-12-15T07:17:14.064Z,9.47
2018-12-15T07:19:42.540Z,9.20
2018-12-15T07:22:11.028Z,9.47
2018-12-15T07:24:39.516Z,8.80
2018-12-15T07:27:08.033Z,9.10
2018-12-15T07:29:36.490Z,9.20
2018-12-15T07:32:05.016Z,9.83
2018-12-15T07:34:39.107Z,10.83
2018-12-15T07:37:07.636Z,9.70
2018-12-15T07:39:36.194Z,9.43
2018-12-15T07:42:04.953Z,9.20
2018-12-15T07:44:33.445Z,9.40
2018-12-15T07:47:14.880Z,9.20
2018-12-15T07:49:43.314Z,9.20
2018-12-15T07:52:11.942Z,9.23
2018-12-15T07:54:40.441Z,9.20
2018-12-15T07:57:09.041Z,9.00
2018-12-15T07:59:37.555Z,9.83
2018-12-15T08:02:06.259Z,9.27
2018-12-15T08:04:34.711Z,11.70
2018-12-15T08:07:03.971Z,11.13
2018-12-15T08:09:33.958Z,10.17
2018-12-15T08:12:07.719Z,11.13
2018-12-15T08:14:36.249Z,10.20
2018-12-15T08:17:04.828Z,10.27
2018-12-15T08:19:33.339Z,10.73
2018-12-15T08:22:01.859Z,10.20
2018-12-15T08:24:30.373Z,10.43
2018-12-15T08:26:58.880Z,11.97
2018-12-15T08:29:27.531Z,12.23
2018-12-15T08:31:56.047Z,12.03
2018-12-15T08:34:24.637Z,13.53
2018-12-15T08:36:53.220Z,11.20
2018-12-15T08:39:21.800Z,10.93
2018-12-15T08:41:50.327Z,10.83
2018-12-15T08:44:18.831Z,11.43
2018-12-15T08:46:47.570Z,12.17
2018-12-15T08:49:16.127Z,11.73
2018-12-15T08:51:45.234Z,12.67
2018-12-15T08:54:13.707Z,11.67
2018-12-15T08:56:42.194Z,11.30
2018-12-15T08:59:10.735Z,39.00
2018-12-15T09:01:39.495Z,22.23
2018-12-15T09:04:07.983Z,16.20
2018-12-15T09:06:36.560Z,12.87
2018-12-15T09:09:06.928Z,14.17
2018-12-15T09:11:35.406Z,15.83
2018-12-15T09:14:03.875Z,14.10
2018-12-15T09:16:32.385Z,13.77
2018-12-15T09:19:00.820Z,12.77
2018-12-15T09:21:29.311Z,12.53
2018-12-15T09:23:57.788Z,11.87
2018-12-15T09:26:26.412Z,11.30
2018-12-15T09:28:54.840Z,19.37
2018-12-15T09:31:23.458Z,19.47
2018-12-15T09:33:51.903Z,15.30
2018-12-15T09:36:20.372Z,14.90
2018-12-15T09:38:48.940Z,15.13
2018-12-15T09:41:17.477Z,14.13
2018-12-15T09:43:45.977Z,16.50
2018-12-15T09:46:14.512Z,11.93
2018-12-15T09:48:42.964Z,10.60
2018-12-15T09:51:12.360Z,11.13
2018-12-15T09:53:46.785Z,11.33
2018-12-15T09:56:15.466Z,10.80
2018-12-15T09:58:44.224Z,11.70
2018-12-15T10:01:13.229Z,12.30
2018-12-15T10:03:41.684Z,25.63
2018-12-15T10:06:10.211Z,23.47
2018-12-15T10:08:38.712Z,17.67
2018-12-15T10:11:07.163Z,13.10
2018-12-15T10:13:35.607Z,12.53
2018-12-15T10:16:04.197Z,14.17
2018-12-15T10:18:32.914Z,18.17
2018-12-15T10:21:01.502Z,15.60
2018-12-15T10:23:30.024Z,15.10
2018-12-15T10:25:58.488Z,14.57
2018-12-15T10:28:26.967Z,14.63
2018-12-15T10:31:01.083Z,15.10
2018-12-15T10:33:29.589Z,15.50
2018-12-15T10:35:59.200Z,16.07
2018-12-15T10:38:28.020Z,16.03
2018-12-15T10:40:56.523Z,15.37
2018-12-15T10:43:25.021Z,15.90
2018-12-15T10:45:53.507Z,15.90
2018-12-15T10:48:22.029Z,15.27
2018-12-15T10:50:50.511Z,15.43
2018-12-15T10:53:18.984Z,16.60
2018-12-15T10:55:47.781Z,16.10
2018-12-15T10:58:16.252Z,16.37
2018-12-15T11:00:49.919Z,14.53
2018-12-15T11:03:18.416Z,16.20
2018-12-15T11:05:46.870Z,15.40
2018-12-15T11:08:15.340Z,16.07
2018-12-15T11:10:43.957Z,16.00
2018-12-15T11:13:12.427Z,15.70
2018-12-15T11:15:40.886Z,14.20
2018-12-15T11:18:09.676Z,14.73
2018-12-15T11:20:38.331Z,13.70
2018-12-15T11:23:06.810Z,13.27
2018-12-15T11:25:35.237Z,13.63
2018-12-15T11:28:03.719Z,70.57
2018-12-15T11:30:32.137Z,20.00
2018-12-15T11:33:00.625Z,57.27
2018-12-15T11:35:29.093Z,15.27
2018-12-15T11:37:57.608Z,15.00
2018-12-15T11:40:26.087Z,21.27
2018-12-15T11:42:54.615Z,17.90
2018-12-15T11:45:23.138Z,18.73
2018-12-15T11:47:51.666Z,18.07
2018-12-15T11:50:20.237Z,15.10
2018-12-15T11:52:48.729Z,13.30
2018-12-15T11:55:17.160Z,13.77
2018-12-15T11:57:45.640Z,13.27
2018-12-15T12:00:14.318Z,12.67
2018-12-15T12:02:42.813Z,12.50
2018-12-15T12:05:11.300Z,13.50
2018-12-15T12:07:39.779Z,14.00
2018-12-15T12:10:08.398Z,13.43
2018-12-15T12:12:36.888Z,13.70
2018-12-15T12:15:05.827Z,13.97
2018-12-15T12:17:34.308Z,13.57
2018-12-15T12:20:03.057Z,15.40
2018-12-15T12:22:31.521Z,14.67
2018-12-15T12:24:59.959Z,14.63
2018-12-15T12:27:28.411Z,14.60
2018-12-15T12:29:56.984Z,14.43
2018-12-15T12:32:25.440Z,15.30
2018-12-15T12:34:53.887Z,16.40
2018-12-15T12:37:22.384Z,18.50
2018-12-15T12:39:50.822Z,16.90
2018-12-15T12:42:19.304Z,14.23
2018-12-15T12:44:47.741Z,15.93
2018-12-15T12:47:16.178Z,14.97
2018-12-15T12:49:44.623Z,14.90
2018-12-15T12:52:13.087Z,14.63
2018-12-15T12:54:41.520Z,14.20
2018-12-15T12:57:10.006Z,14.00
2018-12-15T12:59:38.443Z,14.90
2018-12-15T13:02:06.992Z,14.97
2018-12-15T13:04:35.461Z,15.10
2018-12-15T13:07:03.906Z,14.90
2018-12-15T13:09:32.373Z,15.23
2018-12-15T13:12:00.801Z,14.03
2018-12-15T13:14:29.392Z,14.07
2018-12-15T13:16:57.797Z,14.10
2018-12-15T13:19:26.260Z,14.80
2018-12-15T13:21:54.695Z,14.57
2018-12-15T13:24:23.327Z,14.83
2018-12-15T13:26:51.752Z,15.33
2018-12-15T13:29:20.336Z,13.97
2018-12-15T13:31:48.762Z,13.23
2018-12-15T13:34:17.236Z,13.27
2018-12-15T13:36:45.667Z,14.40
2018-12-15T13:39:14.132Z,14.47
2018-12-15T13:41:42.568Z,13.50
2018-12-15T13:44:11.013Z,14.00
2018-12-15T13:46:39.456Z,13.10
2018-12-15T13:49:07.939Z,13.73
2018-12-15T13:51:36.571Z,13.33
2018-12-15T13:54:05.074Z,13.03
2018-12-15T13:56:33.542Z,13.93
2018-12-15T13:59:02.027Z,14.47
2018-12-15T14:01:30.761Z,18.30
2018-12-15T14:03:59.463Z,18.97
2018-12-15T14:06:28.056Z,19.50
2018-12-15T14:08:56.523Z,15.60
2018-12-15T14:11:24.950Z,14.37
2018-12-15T14:13:53.415Z,14.43
2018-12-15T14:16:22.904Z,14.20
2018-12-15T14:18:51.375Z,14.23
2018-12-15T14:21:19.835Z,14.20
2018-12-15T14:23:48.301Z,15.57
2018-12-15T14:26:16.754Z,15.33
2018-12-15T14:28:45.248Z,15.30
2018-12-15T14:31:13.820Z,15.93
2018-12-15T14:33:42.291Z,14.87
2018-12-15T14:36:10.735Z,15.27
2018-12-15T14:38:39.221Z,15.37
2018-12-15T14:41:07.642Z,15.20
2018-12-15T14:43:36.121Z,15.47
2018-12-15T14:46:04.575Z,16.17
2018-12-15T14:48:33.016Z,15.53
2018-12-15T14:51:01.477Z,15.40
2018-12-15T14:53:29.943Z,15.53
2018-12-15T14:55:58.380Z,15.17
2018-12-15T15:00:55.961Z,14.37
2018-12-15T15:03:24.580Z,14.67
2018-12-15T15:05:53.060Z,15.33
2018-12-15T15:08:21.540Z,15.03
2018-12-15T15:10:49.982Z,14.60
2018-12-15T15:13:18.468Z,15.23
2018-12-15T15:15:46.919Z,15.77
2018-12-15T15:18:15.388Z,16.40
2018-12-15T15:20:43.836Z,15.13
2018-12-15T15:23:12.290Z,15.77
2018-12-15T15:25:40.748Z,16.03
2018-12-15T15:28:09.208Z,15.53
2018-12-15T15:30:37.795Z,15.33
2018-12-15T15:33:06.276Z,19.90
2018-12-15T15:35:34.730Z,16.23
2018-12-15T15:38:03.188Z,16.17
2018-12-15T15:40:31.657Z,16.63
2018-12-15T15:43:00.117Z,16.27
2018-12-15T15:45:28.959Z,18.07
2018-12-15T15:47:57.644Z,19.63
2018-12-15T15:50:26.299Z,17.10
2018-12-15T15:52:55.371Z,18.23
2018-12-15T15:55:24.206Z,20.97
2018-12-15T15:57:52.841Z,21.83
2018-12-15T16:00:21.321Z,16.60
2018-12-15T16:02:49.801Z,16.97
2018-12-15T16:05:19.024Z,15.77
2018-12-15T16:07:47.495Z,13.83
2018-12-15T16:11:40.373Z,19.53
2018-12-15T16:14:08.935Z,15.43
2018-12-15T16:16:37.425Z,17.53
2018-12-15T16:19:06.896Z,15.53
2018-12-15T16:21:35.451Z,27.60
2018-12-15T16:24:04.168Z,60.27
2018-12-15T16:26:32.636Z,18.90
2018-12-15T16:29:01.121Z,17.53
2018-12-15T16:31:29.643Z,17.83
2018-12-15T16:33:58.103Z,21.57
2018-12-15T16:36:26.539Z,20.00
2018-12-15T16:38:55.106Z,17.57
2018-12-15T16:41:23.531Z,17.23
2018-12-15T16:43:51.995Z,16.63
2018-12-15T16:46:20.412Z,16.10
2018-12-15T16:48:48.841Z,15.33
2018-12-15T16:51:17.428Z,16.70
2018-12-15T16:53:45.990Z,15.43
2018-12-15T16:56:14.536Z,15.57
2018-12-15T16:58:42.963Z,15.63
2018-12-15T17:01:11.407Z,14.90
2018-12-15T17:03:39.844Z,15.47
2018-12-15T17:06:08.441Z,15.30
2018-12-15T17:08:36.869Z,15.07
2018-12-15T17:11:05.356Z,20.50
2018-12-15T17:13:33.787Z,18.13
2018-12-15T17:16:02.268Z,17.00
2018-12-15T17:18:30.807Z,16.83
2018-12-15T17:20:59.280Z,16.40
2018-12-15T17:23:27.711Z,18.53
2018-12-15T17:25:56.163Z,16.90
2018-12-15T17:28:24.592Z,19.00
2018-12-15T17:30:53.027Z,17.90
2018-12-15T17:33:21.464Z,16.13
2018-12-15T17:35:49.920Z,18.37
2018-12-15T17:38:19.926Z,15.57
2018-12-15T17:40:48.541Z,22.70
2018-12-15T17:43:16.976Z,19.53
2018-12-15T17:45:45.449Z,19.87
2018-12-15T17:48:13.951Z,15.70
2018-12-15T17:50:42.466Z,17.00
2018-12-15T17:53:10.903Z,14.77
2018-12-15T17:55:39.353Z,14.00
2018-12-15T17:58:07.775Z,15.60
2018-12-15T18:00:36.234Z,15.60
2018-12-15T18:03:04.672Z,15.40
2018-12-15T18:05:33.115Z,14.33
2018-12-15T18:08:01.542Z,14.67
2018-12-15T18:10:30.016Z,15.17
2018-12-15T18:12:58.441Z,16.03
2018-12-15T18:15:26.902Z,16.10
2018-12-15T18:17:55.404Z,15.70
2018-12-15T18:20:23.886Z,15.70
2018-12-15T18:22:52.332Z,16.27
2018-12-15T18:25:20.799Z,17.40
2018-12-15T18:27:49.227Z,18.27
2018-12-15T18:30:17.696Z,18.43
2018-12-15T18:32:46.140Z,19.13
2018-12-15T18:35:14.584Z,20.40
2018-12-15T18:37:43.020Z,21.53
2018-12-15T18:40:11.509Z,22.00
2018-12-15T18:42:39.926Z,21.63
2018-12-15T18:45:08.612Z,20.47
2018-12-15T18:47:37.044Z,20.17
2018-12-15T18:50:07.299Z,24.53
2018-12-15T18:52:35.737Z,23.47
2018-12-15T18:55:04.592Z,21.40
2018-12-15T18:57:33.027Z,19.57
2018-12-15T19:00:01.491Z,19.33
2018-12-15T19:02:29.930Z,23.13
2018-12-15T19:04:58.382Z,24.70
2018-12-15T19:07:26.808Z,24.70
2018-12-15T19:09:55.268Z,26.37
2018-12-15T19:12:23.727Z,23.60
2018-12-15T19:14:52.180Z,21.90
2018-12-15T19:17:20.621Z,20.13
2018-12-15T19:19:49.083Z,22.57
2018-12-15T19:22:17.512Z,24.17
2018-12-15T19:24:46.449Z,24.47
2018-12-15T19:27:14.899Z,22.70
2018-12-15T19:29:43.324Z,19.53
2018-12-15T19:32:11.779Z,20.03
2018-12-15T19:34:40.232Z,20.97
2018-12-15T19:37:08.826Z,19.37
2018-12-15T19:39:37.300Z,19.33
2018-12-15T19:42:05.752Z,19.70
2018-12-15T19:44:34.203Z,18.77
2018-12-15T19:47:02.684Z,18.03
2018-12-15T19:49:31.117Z,18.53
2018-12-15T19:51:59.599Z,17.27
2018-12-15T19:54:28.040Z,17.53
2018-12-15T19:56:56.540Z,18.67
2018-12-15T19:59:24.972Z,16.00
2018-12-15T20:01:53.459Z,15.83
2018-12-15T20:04:21.908Z,16.17
2018-12-15T20:06:50.400Z,16.53
2018-12-15T20:09:18.857Z,18.37
2018-12-15T20:11:47.463Z,24.70
2018-12-15T20:14:15.924Z,19.57
2018-12-15T20:16:44.400Z,19.73
2018-12-15T20:19:12.817Z,19.73
2018-12-15T20:21:41.300Z,19.97
2018-12-15T20:24:09.823Z,20.10
2018-12-15T20:26:38.290Z,22.37
2018-12-15T20:29:06.740Z,19.20
2018-12-15T20:31:35.213Z,20.23
2018-12-15T20:34:03.676Z,20.47
2018-12-15T20:36:32.160Z,20.37
2018-12-15T20:39:00.618Z,19.17
2018-12-15T20:41:29.098Z,19.63
2018-12-15T20:43:57.544Z,19.73
2018-12-15T20:46:26.045Z,20.73
2018-12-15T20:48:54.520Z,20.87
2018-12-15T20:51:23.019Z,20.77
2018-12-15T20:53:51.480Z,21.73
2018-12-15T20:56:19.979Z,22.90
2018-12-15T20:58:48.560Z,26.03
2018-12-15T21:01:17.065Z,24.40
2018-12-15T21:03:45.529Z,24.23
2018-12-15T21:06:14.039Z,24.57
2018-12-15T21:08:42.483Z,21.97
2018-12-15T21:11:11.013Z,22.20
2018-12-15T21:13:39.484Z,22.97
2018-12-15T21:16:08.023Z,26.20
2018-12-15T21:18:37.073Z,30.80
2018-12-15T21:21:05.597Z,33.13
2018-12-15T21:23:34.083Z,29.93
2018-12-15T21:26:02.685Z,27.50
2018-12-15T21:28:31.139Z,26.00
2018-12-15T21:30:59.653Z,22.30
2018-12-15T21:33:28.136Z,21.13
2018-12-15T21:35:56.654Z,19.73
2018-12-15T21:38:25.122Z,19.83
2018-12-15T21:40:53.580Z,19.57
2018-12-15T21:43:22.144Z,21.27
2018-12-15T21:45:50.639Z,19.93
2018-12-15T21:48:19.105Z,20.40
2018-12-15T21:50:47.587Z,20.47
2018-12-15T21:53:16.080Z,19.77
2018-12-15T21:55:44.545Z,21.40
2018-12-15T21:58:13.041Z,21.43
2018-12-15T22:00:41.598Z,22.43
2018-12-15T22:03:10.078Z,21.77
2018-12-15T22:05:38.576Z,25.57
2018-12-15T22:08:07.193Z,25.60
2018-12-15T22:10:36.172Z,26.47
2018-12-15T22:13:04.903Z,23.77
2018-12-15T22:15:33.368Z,21.33
2018-12-15T22:18:01.856Z,21.33
2018-12-15T22:20:30.529Z,19.23
2018-12-15T22:22:59.006Z,19.83
2018-12-15T22:25:27.464Z,19.70
2018-12-15T22:27:55.944Z,20.17
2018-12-15T22:30:24.410Z,17.80
2018-12-15T22:32:52.909Z,18.20
2018-12-15T22:35:21.348Z,19.03
2018-12-15T22:37:49.844Z,18.43
2018-12-15T22:40:18.305Z,20.57
2018-12-15T22:42:46.822Z,22.43
2018-12-15T22:45:15.302Z,21.13
2018-12-15T22:47:43.805Z,18.37
2018-12-15T22:50:12.480Z,18.50
2018-12-15T22:52:40.968Z,18.23
2018-12-15T22:55:09.564Z,18.03
2018-12-15T22:57:38.044Z,20.37
2018-12-15T23:00:08.856Z,23.27
2018-12-15T23:02:37.346Z,22.63
2018-12-15T23:05:05.983Z,21.87
2018-12-15T23:07:34.470Z,21.57
2018-12-15T23:10:02.941Z,20.87
2018-12-15T23:12:31.527Z,20.77
2018-12-15T23:15:00.028Z,21.07
2018-12-15T23:17:28.526Z,28.37
2018-12-15T23:19:56.977Z,21.40
2018-12-15T23:22:25.478Z,28.30
2018-12-15T23:24:53.955Z,27.60
2018-12-15T23:27:22.571Z,20.23
2018-12-15T23:29:51.043Z,24.77
2018-12-15T23:32:19.524Z,24.77
2018-12-15T23:34:48.968Z,19.00
2018-12-15T23:37:17.446Z,18.00
2018-12-15T23:39:45.923Z,18.73
2018-12-15T23:42:14.411Z,20.03
2018-12-15T23:44:42.871Z,19.03
2018-12-15T23:47:11.368Z,19.50
2018-12-15T23:49:39.843Z,20.27
2018-12-15T23:52:08.333Z,19.10
2018-12-15T23:54:36.857Z,18.17
2018-12-15T23:57:05.364Z,19.67
2018-12-15T23:59:33.820Z,18.87
